sensor_id;sensor_type;location;lat;lon;timestamp;temperature;humidity
3778;DHT22;1904;50.076;8.660;2022-09-24T00:01:26;11.00;1.00
3778;DHT22;1904;50.076;8.660;2022-09-24T00:03:57;11.00;1.00
3778;DHT22;1904;50.076;8.660;2022-09-24T00:06:32;11.00;1.00
3778;DHT22;1904;50.076;8.660;2022-09-24T00:08:58;11.00;1.00
3778;DHT22;1904;50.076;8.660;2022-09-24T00:11:28;11.00;1.00
3778;DHT22;1904;50.076;8.660;2022-09-24T00:14:10;11.00;1.00
3778;DHT22;1904;50.076;8.660;2022-09-24T00:16:38;11.00;1.00
3778;DHT22;1904;50.076;8.660;2022-09-24T00:19:04;11.00;1.00
3778;DHT22;1904;50.076;8.660;2022-09-24T00:21:40;11.00;1.00
3778;DHT22;1904;50.076;8.660;2022-09-24T00:24:09;11.00;1.00
3778;DHT22;1904;50.076;8.660;2022-09-24T00:26:59;10.90;1.00
3778;DHT22;1904;50.076;8.660;2022-09-24T00:36:18;10.80;1.00
3778;DHT22;1904;50.076;8.660;2022-09-24T00:38:51;10.80;1.00
3778;DHT22;1904;50.076;8.660;2022-09-24T00:47:46;10.80;1.00
3778;DHT22;1904;50.076;8.660;2022-09-24T00:50:20;10.80;1.00
3778;DHT22;1904;50.076;8.660;2022-09-24T00:56:18;10.80;1.00
3778;DHT22;1904;50.076;8.660;2022-09-24T00:59:17;10.70;1.00
3778;DHT22;1904;50.076;8.660;2022-09-24T01:02:16;10.70;1.00
3778;DHT22;1904;50.076;8.660;2022-09-24T01:04:46;10.60;1.00
3778;DHT22;1904;50.076;8.660;2022-09-24T01:07:46;10.50;1.00
3778;DHT22;1904;50.076;8.660;2022-09-24T01:17:11;10.40;1.00
3778;DHT22;1904;50.076;8.660;2022-09-24T01:31:17;10.20;1.00
3778;DHT22;1904;50.076;8.660;2022-09-24T01:34:00;10.10;1.00
3778;DHT22;1904;50.076;8.660;2022-09-24T01:36:32;10.10;1.00
3778;DHT22;1904;50.076;8.660;2022-09-24T01:38:59;10.10;1.00
3778;DHT22;1904;50.076;8.660;2022-09-24T01:41:36;10.10;1.00
3778;DHT22;1904;50.076;8.660;2022-09-24T01:44:05;10.00;1.00
3778;DHT22;1904;50.076;8.660;2022-09-24T01:46:46;9.90;1.00
3778;DHT22;1904;50.076;8.660;2022-09-24T01:52:33;9.90;1.00
3778;DHT22;1904;50.076;8.660;2022-09-24T01:55:19;9.90;1.00
3778;DHT22;1904;50.076;8.660;2022-09-24T02:01:06;9.70;1.00
3778;DHT22;1904;50.076;8.660;2022-09-24T02:03:37;9.70;1.00
3778;DHT22;1904;50.076;8.660;2022-09-24T02:06:33;9.60;1.00
3778;DHT22;1904;50.076;8.660;2022-09-24T02:09:04;9.60;1.00
3778;DHT22;1904;50.076;8.660;2022-09-24T02:11:48;9.60;1.00
3778;DHT22;1904;50.076;8.660;2022-09-24T02:14:15;9.50;1.00
3778;DHT22;1904;50.076;8.660;2022-09-24T02:16:47;9.50;1.00
3778;DHT22;1904;50.076;8.660;2022-09-24T02:19:34;9.40;1.00
3778;DHT22;1904;50.076;8.660;2022-09-24T02:22:05;9.30;1.00
3778;DHT22;1904;50.076;8.660;2022-09-24T02:24:39;9.30;1.00
3778;DHT22;1904;50.076;8.660;2022-09-24T02:27:10;9.20;1.00
3778;DHT22;1904;50.076;8.660;2022-09-24T02:29:36;9.10;1.00
3778;DHT22;1904;50.076;8.660;2022-09-24T02:35:24;9.00;1.00
3778;DHT22;1904;50.076;8.660;2022-09-24T02:38:17;9.00;1.00
3778;DHT22;1904;50.076;8.660;2022-09-24T02:40:47;8.90;1.00
3778;DHT22;1904;50.076;8.660;2022-09-24T02:43:16;8.90;1.00
3778;DHT22;1904;50.076;8.660;2022-09-24T02:45:46;8.80;1.00
3778;DHT22;1904;50.076;8.660;2022-09-24T02:48:46;8.70;1.00
3778;DHT22;1904;50.076;8.660;2022-09-24T02:51:28;8.70;1.00
3778;DHT22;1904;50.076;8.660;2022-09-24T02:54:16;8.70;1.00
3778;DHT22;1904;50.076;8.660;2022-09-24T02:56:47;8.60;1.00
3778;DHT22;1904;50.076;8.660;2022-09-24T02:59:17;8.50;1.00
3778;DHT22;1904;50.076;8.660;2022-09-24T03:01:46;8.50;1.00
3778;DHT22;1904;50.076;8.660;2022-09-24T03:04:16;8.50;1.00
3778;DHT22;1904;50.076;8.660;2022-09-24T03:06:46;8.50;1.00
3778;DHT22;1904;50.076;8.660;2022-09-24T03:09:22;8.50;1.00
3778;DHT22;1904;50.076;8.660;2022-09-24T03:11:52;8.40;1.00
3778;DHT22;1904;50.076;8.660;2022-09-24T03:14:28;8.40;1.00
3778;DHT22;1904;50.076;8.660;2022-09-24T03:16:58;8.30;1.00
3778;DHT22;1904;50.076;8.660;2022-09-24T03:19:28;8.20;1.00
3778;DHT22;1904;50.076;8.660;2022-09-24T03:22:04;8.20;1.00
3778;DHT22;1904;50.076;8.660;2022-09-24T03:24:46;8.20;1.00
3778;DHT22;1904;50.076;8.660;2022-09-24T03:27:16;8.20;1.00
3778;DHT22;1904;50.076;8.660;2022-09-24T03:29:46;8.20;1.00
3778;DHT22;1904;50.076;8.660;2022-09-24T03:35:46;8.20;1.00
3778;DHT22;1904;50.076;8.660;2022-09-24T03:38:16;8.20;1.00
3778;DHT22;1904;50.076;8.660;2022-09-24T03:40:42;8.20;1.00
3778;DHT22;1904;50.076;8.660;2022-09-24T03:43:16;8.20;1.00
3778;DHT22;1904;50.076;8.660;2022-09-24T03:45:46;8.20;1.00
3778;DHT22;1904;50.076;8.660;2022-09-24T03:48:18;8.20;1.00
3778;DHT22;1904;50.076;8.660;2022-09-24T03:50:47;8.20;1.00
3778;DHT22;1904;50.076;8.660;2022-09-24T03:53:14;8.20;1.00
3778;DHT22;1904;50.076;8.660;2022-09-24T03:56:05;8.10;1.00
3778;DHT22;1904;50.076;8.660;2022-09-24T03:58:35;8.20;1.00
3778;DHT22;1904;50.076;8.660;2022-09-24T04:01:16;8.20;1.00
3778;DHT22;1904;50.076;8.660;2022-09-24T04:03:45;8.20;1.00
3778;DHT22;1904;50.076;8.660;2022-09-24T04:06:22;8.30;1.00
3778;DHT22;1904;50.076;8.660;2022-09-24T04:08:50;8.20;1.00
3778;DHT22;1904;50.076;8.660;2022-09-24T04:11:16;8.20;1.00
3778;DHT22;1904;50.076;8.660;2022-09-24T04:13:46;8.30;1.00
3778;DHT22;1904;50.076;8.660;2022-09-24T04:16:16;8.40;1.00
3778;DHT22;1904;50.076;8.660;2022-09-24T04:22:34;8.50;1.00
3778;DHT22;1904;50.076;8.660;2022-09-24T04:25:29;8.50;1.00
3778;DHT22;1904;50.076;8.660;2022-09-24T04:31:17;8.40;1.00
3778;DHT22;1904;50.076;8.660;2022-09-24T04:33:53;8.40;1.00
3778;DHT22;1904;50.076;8.660;2022-09-24T04:36:22;8.40;1.00
3778;DHT22;1904;50.076;8.660;2022-09-24T04:38:58;8.40;1.00
3778;DHT22;1904;50.076;8.660;2022-09-24T04:41:29;8.40;1.00
3778;DHT22;1904;50.076;8.660;2022-09-24T04:43:56;8.40;1.00
3778;DHT22;1904;50.076;8.660;2022-09-24T04:46:23;8.40;1.00
3778;DHT22;1904;50.076;8.660;2022-09-24T04:48:59;8.50;1.00
3778;DHT22;1904;50.076;8.660;2022-09-24T04:51:25;8.50;1.00
3778;DHT22;1904;50.076;8.660;2022-09-24T04:53:52;8.40;1.00
3778;DHT22;1904;50.076;8.660;2022-09-24T04:56:34;8.40;1.00
3778;DHT22;1904;50.076;8.660;2022-09-24T04:59:10;8.40;1.00
3778;DHT22;1904;50.076;8.660;2022-09-24T05:01:46;8.50;1.00
3778;DHT22;1904;50.076;8.660;2022-09-24T05:04:16;8.40;1.00
3778;DHT22;1904;50.076;8.660;2022-09-24T05:06:58;8.40;1.00
3778;DHT22;1904;50.076;8.660;2022-09-24T05:09:29;8.40;1.00
3778;DHT22;1904;50.076;8.660;2022-09-24T05:12:10;8.40;1.00
3778;DHT22;1904;50.076;8.660;2022-09-24T05:14:36;8.50;1.00
3778;DHT22;1904;50.076;8.660;2022-09-24T05:17:22;8.50;1.00
3778;DHT22;1904;50.076;8.660;2022-09-24T05:19:48;8.50;1.00
3778;DHT22;1904;50.076;8.660;2022-09-24T05:22:16;8.50;1.00
3778;DHT22;1904;50.076;8.660;2022-09-24T05:24:42;8.50;1.00
3778;DHT22;1904;50.076;8.660;2022-09-24T05:27:10;8.50;1.00
3778;DHT22;1904;50.076;8.660;2022-09-24T05:29:38;8.60;1.00
3778;DHT22;1904;50.076;8.660;2022-09-24T05:32:06;8.60;1.00
3778;DHT22;1904;50.076;8.660;2022-09-24T05:34:44;8.60;1.00
3778;DHT22;1904;50.076;8.660;2022-09-24T05:37:16;8.60;1.00
3778;DHT22;1904;50.076;8.660;2022-09-24T05:40:04;8.60;1.00
3778;DHT22;1904;50.076;8.660;2022-09-24T05:42:59;8.60;1.00
3778;DHT22;1904;50.076;8.660;2022-09-24T05:45:24;8.70;1.00
3778;DHT22;1904;50.076;8.660;2022-09-24T05:51:28;8.60;1.00
3778;DHT22;1904;50.076;8.660;2022-09-24T05:57:46;8.80;1.00
3778;DHT22;1904;50.076;8.660;2022-09-24T06:03:52;9.00;1.00
3778;DHT22;1904;50.076;8.660;2022-09-24T06:06:18;9.10;1.00
3778;DHT22;1904;50.076;8.660;2022-09-24T06:08:44;9.20;1.00
3778;DHT22;1904;50.076;8.660;2022-09-24T06:11:10;9.50;1.00
3778;DHT22;1904;50.076;8.660;2022-09-24T06:13:37;9.70;1.00
3778;DHT22;1904;50.076;8.660;2022-09-24T06:16:06;9.70;1.00
3778;DHT22;1904;50.076;8.660;2022-09-24T06:18:34;9.80;1.00
3778;DHT22;1904;50.076;8.660;2022-09-24T06:21:10;9.90;1.00
3778;DHT22;1904;50.076;8.660;2022-09-24T06:23:37;10.00;1.00
3778;DHT22;1904;50.076;8.660;2022-09-24T06:26:05;10.10;1.00
3778;DHT22;1904;50.076;8.660;2022-09-24T06:28:33;10.20;1.00
3778;DHT22;1904;50.076;8.660;2022-09-24T06:31:05;10.30;1.00
3778;DHT22;1904;50.076;8.660;2022-09-24T06:36:48;10.40;1.00
3778;DHT22;1904;50.076;8.660;2022-09-24T06:39:40;10.50;1.00
3778;DHT22;1904;50.076;8.660;2022-09-24T06:52:11;11.00;1.00
3778;DHT22;1904;50.076;8.660;2022-09-24T06:54:37;11.20;1.00
3778;DHT22;1904;50.076;8.660;2022-09-24T07:03:34;11.80;1.00
3778;DHT22;1904;50.076;8.660;2022-09-24T07:06:28;11.90;1.00
3778;DHT22;1904;50.076;8.660;2022-09-24T07:09:28;12.00;1.00
3778;DHT22;1904;50.076;8.660;2022-09-24T07:12:16;12.10;1.00
3778;DHT22;1904;50.076;8.660;2022-09-24T07:14:51;12.20;1.00
3778;DHT22;1904;50.076;8.660;2022-09-24T07:17:17;12.30;1.00
3778;DHT22;1904;50.076;8.660;2022-09-24T07:23:23;12.50;1.00
3778;DHT22;1904;50.076;8.660;2022-09-24T07:29:10;13.00;1.00
3778;DHT22;1904;50.076;8.660;2022-09-24T07:32:10;13.20;1.00
3778;DHT22;1904;50.076;8.660;2022-09-24T07:35:10;13.50;1.00
3778;DHT22;1904;50.076;8.660;2022-09-24T07:40:57;13.80;1.00
3778;DHT22;1904;50.076;8.660;2022-09-24T07:43:24;13.90;1.00
3778;DHT22;1904;50.076;8.660;2022-09-24T07:45:51;14.00;1.00
3778;DHT22;1904;50.076;8.660;2022-09-24T07:48:34;14.10;1.00
3778;DHT22;1904;50.076;8.660;2022-09-24T07:51:16;14.20;1.00
3778;DHT22;1904;50.076;8.660;2022-09-24T07:53:58;14.30;1.00
3778;DHT22;1904;50.076;8.660;2022-09-24T07:56:46;14.60;1.00
3778;DHT22;1904;50.076;8.660;2022-09-24T07:59:16;14.80;1.00
3778;DHT22;1904;50.076;8.660;2022-09-24T08:01:53;15.00;1.00
3778;DHT22;1904;50.076;8.660;2022-09-24T08:04:19;15.20;1.00
3778;DHT22;1904;50.076;8.660;2022-09-24T08:07:16;15.40;1.00
3778;DHT22;1904;50.076;8.660;2022-09-24T08:10:10;15.60;1.00
3778;DHT22;1904;50.076;8.660;2022-09-24T08:13:04;15.80;1.00
3778;DHT22;1904;50.076;8.660;2022-09-24T08:15:34;16.00;1.00
3778;DHT22;1904;50.076;8.660;2022-09-24T08:18:34;16.20;1.00
3778;DHT22;1904;50.076;8.660;2022-09-24T08:21:22;16.50;1.00
3778;DHT22;1904;50.076;8.660;2022-09-24T08:24:04;16.70;1.00
3778;DHT22;1904;50.076;8.660;2022-09-24T08:26:35;16.70;1.00
3778;DHT22;1904;50.076;8.660;2022-09-24T08:29:00;16.90;1.00
3778;DHT22;1904;50.076;8.660;2022-09-24T08:31:28;17.00;1.00
3778;DHT22;1904;50.076;8.660;2022-09-24T08:34:04;17.10;1.00
3778;DHT22;1904;50.076;8.660;2022-09-24T08:36:46;17.10;1.00
3778;DHT22;1904;50.076;8.660;2022-09-24T08:39:12;17.00;1.00
3778;DHT22;1904;50.076;8.660;2022-09-24T08:44:56;16.60;1.00
3778;DHT22;1904;50.076;8.660;2022-09-24T08:47:58;16.40;1.00
3778;DHT22;1904;50.076;8.660;2022-09-24T08:50:33;16.20;1.00
3778;DHT22;1904;50.076;8.660;2022-09-24T09:13:25;16.00;1.00
3778;DHT22;1904;50.076;8.660;2022-09-24T09:22:38;16.30;1.00
3778;DHT22;1904;50.076;8.660;2022-09-24T09:25:24;16.50;1.00
3778;DHT22;1904;50.076;8.660;2022-09-24T09:28:12;16.60;1.00
3778;DHT22;1904;50.076;8.660;2022-09-24T09:31:06;16.70;1.00
3778;DHT22;1904;50.076;8.660;2022-09-24T09:33:53;16.70;1.00
3778;DHT22;1904;50.076;8.660;2022-09-24T09:44:30;17.20;1.00
3778;DHT22;1904;50.076;8.660;2022-09-24T09:50:13;17.60;1.00
3778;DHT22;1904;50.076;8.660;2022-09-24T09:52:42;17.80;1.00
3778;DHT22;1904;50.076;8.660;2022-09-24T09:59:05;18.30;1.00
3778;DHT22;1904;50.076;8.660;2022-09-24T10:08:24;18.70;1.00
3778;DHT22;1904;50.076;8.660;2022-09-24T10:20:38;19.70;1.00
3778;DHT22;1904;50.076;8.660;2022-09-24T10:23:06;20.00;1.00
3778;DHT22;1904;50.076;8.660;2022-09-24T10:25:50;20.10;1.00
3778;DHT22;1904;50.076;8.660;2022-09-24T10:28:18;20.20;1.00
3778;DHT22;1904;50.076;8.660;2022-09-24T10:31:15;20.60;1.00
3778;DHT22;1904;50.076;8.660;2022-09-24T10:33:44;20.90;1.00
3778;DHT22;1904;50.076;8.660;2022-09-24T10:39:41;21.30;1.00
3778;DHT22;1904;50.076;8.660;2022-09-24T10:42:27;21.20;1.00
3778;DHT22;1904;50.076;8.660;2022-09-24T10:45:12;21.00;1.00
3778;DHT22;1904;50.076;8.660;2022-09-24T10:51:35;21.00;1.00
3778;DHT22;1904;50.076;8.660;2022-09-24T10:56:49;20.90;1.00
3778;DHT22;1904;50.076;8.660;2022-09-24T11:04:50;20.80;1.00
3778;DHT22;1904;50.076;8.660;2022-09-24T11:07:43;20.80;1.00
3778;DHT22;1904;50.076;8.660;2022-09-24T11:10:52;20.90;1.00
3778;DHT22;1904;50.076;8.660;2022-09-24T11:13:43;21.00;1.00
3778;DHT22;1904;50.076;8.660;2022-09-24T11:24:41;21.90;1.00
3778;DHT22;1904;50.076;8.660;2022-09-24T11:33:17;22.10;1.00
3778;DHT22;1904;50.076;8.660;2022-09-24T11:36:29;22.30;1.00
3778;DHT22;1904;50.076;8.660;2022-09-24T11:48:06;22.10;1.00
3778;DHT22;1904;50.076;8.660;2022-09-24T11:54:01;22.10;1.00
3778;DHT22;1904;50.076;8.660;2022-09-24T11:56:39;22.30;1.00
3778;DHT22;1904;50.076;8.660;2022-09-24T12:01:48;22.50;1.00
3778;DHT22;1904;50.076;8.660;2022-09-24T12:04:45;22.60;1.00
3778;DHT22;1904;50.076;8.660;2022-09-24T12:10:42;23.10;1.00
3778;DHT22;1904;50.076;8.660;2022-09-24T12:16:35;23.40;1.00
3778;DHT22;1904;50.076;8.660;2022-09-24T12:19:15;23.60;1.00
3778;DHT22;1904;50.076;8.660;2022-09-24T12:21:44;23.60;1.00
3778;DHT22;1904;50.076;8.660;2022-09-24T12:24:42;23.60;1.00
3778;DHT22;1904;50.076;8.660;2022-09-24T12:27:23;23.70;1.00
3778;DHT22;1904;50.076;8.660;2022-09-24T12:33:00;24.10;1.00
3778;DHT22;1904;50.076;8.660;2022-09-24T12:38:32;23.90;1.00
3778;DHT22;1904;50.076;8.660;2022-09-24T12:41:24;23.80;1.00
3778;DHT22;1904;50.076;8.660;2022-09-24T12:44:15;23.80;1.00
3778;DHT22;1904;50.076;8.660;2022-09-24T12:49:30;23.80;1.00
3778;DHT22;1904;50.076;8.660;2022-09-24T12:52:03;23.80;1.00
3778;DHT22;1904;50.076;8.660;2022-09-24T12:54:32;23.60;1.00
3778;DHT22;1904;50.076;8.660;2022-09-24T12:57:23;23.60;1.00
3778;DHT22;1904;50.076;8.660;2022-09-24T12:59:56;23.60;1.00
3778;DHT22;1904;50.076;8.660;2022-09-24T13:02:47;23.40;1.00
3778;DHT22;1904;50.076;8.660;2022-09-24T13:05:25;23.40;1.00
3778;DHT22;1904;50.076;8.660;2022-09-24T13:08:34;23.60;1.00
3778;DHT22;1904;50.076;8.660;2022-09-24T13:11:00;23.30;1.00
3778;DHT22;1904;50.076;8.660;2022-09-24T13:13:32;23.40;1.00
3778;DHT22;1904;50.076;8.660;2022-09-24T13:16:18;23.50;1.00
3778;DHT22;1904;50.076;8.660;2022-09-24T13:18:55;23.50;1.00
3778;DHT22;1904;50.076;8.660;2022-09-24T13:21:27;23.60;1.00
3778;DHT22;1904;50.076;8.660;2022-09-24T13:23:54;23.70;1.00
3778;DHT22;1904;50.076;8.660;2022-09-24T13:29:19;24.00;1.00
3778;DHT22;1904;50.076;8.660;2022-09-24T13:31:50;24.20;1.00
3778;DHT22;1904;50.076;8.660;2022-09-24T13:34:35;24.40;1.00
3778;DHT22;1904;50.076;8.660;2022-09-24T13:37:21;24.40;1.00
3778;DHT22;1904;50.076;8.660;2022-09-24T13:39:55;24.20;1.00
3778;DHT22;1904;50.076;8.660;2022-09-24T13:42:38;24.10;1.00
3778;DHT22;1904;50.076;8.660;2022-09-24T13:45:17;24.10;1.00
3778;DHT22;1904;50.076;8.660;2022-09-24T13:47:52;24.10;1.00
3778;DHT22;1904;50.076;8.660;2022-09-24T13:52:57;23.90;1.00
3778;DHT22;1904;50.076;8.660;2022-09-24T13:55:32;23.50;1.00
3778;DHT22;1904;50.076;8.660;2022-09-24T13:57:58;23.20;1.00
3778;DHT22;1904;50.076;8.660;2022-09-24T14:00:27;23.10;1.00
3778;DHT22;1904;50.076;8.660;2022-09-24T14:03:03;23.00;1.00
3778;DHT22;1904;50.076;8.660;2022-09-24T14:05:34;22.90;1.00
3778;DHT22;1904;50.076;8.660;2022-09-24T14:08:12;22.80;1.00
3778;DHT22;1904;50.076;8.660;2022-09-24T14:13:39;22.40;1.00
3778;DHT22;1904;50.076;8.660;2022-09-24T14:16:30;22.30;1.00
3778;DHT22;1904;50.076;8.660;2022-09-24T14:19:04;22.20;1.00
3778;DHT22;1904;50.076;8.660;2022-09-24T14:22:05;22.10;1.00
3778;DHT22;1904;50.076;8.660;2022-09-24T14:24:46;22.00;1.00
3778;DHT22;1904;50.076;8.660;2022-09-24T14:27:19;21.80;1.00
3778;DHT22;1904;50.076;8.660;2022-09-24T14:30:05;21.60;1.00
3778;DHT22;1904;50.076;8.660;2022-09-24T14:35:54;21.50;1.00
3778;DHT22;1904;50.076;8.660;2022-09-24T14:38:31;21.30;1.00
3778;DHT22;1904;50.076;8.660;2022-09-24T14:41:20;21.10;1.00
3778;DHT22;1904;50.076;8.660;2022-09-24T14:44:26;20.90;1.00
3778;DHT22;1904;50.076;8.660;2022-09-24T14:47:24;20.80;1.00
3778;DHT22;1904;50.076;8.660;2022-09-24T14:56:35;20.60;1.00
3778;DHT22;1904;50.076;8.660;2022-09-24T15:05:21;20.50;1.00
3778;DHT22;1904;50.076;8.660;2022-09-24T15:07:47;20.50;1.00
3778;DHT22;1904;50.076;8.660;2022-09-24T15:10:18;20.50;1.00
3778;DHT22;1904;50.076;8.660;2022-09-24T15:12:53;20.40;1.00
3778;DHT22;1904;50.076;8.660;2022-09-24T15:15:35;20.30;1.00
3778;DHT22;1904;50.076;8.660;2022-09-24T15:18:11;20.40;1.00
3778;DHT22;1904;50.076;8.660;2022-09-24T15:20:47;20.40;1.00
3778;DHT22;1904;50.076;8.660;2022-09-24T15:23:17;20.40;1.00
3778;DHT22;1904;50.076;8.660;2022-09-24T15:25:43;20.40;1.00
3778;DHT22;1904;50.076;8.660;2022-09-24T15:28:17;20.40;1.00
3778;DHT22;1904;50.076;8.660;2022-09-24T15:30:47;20.40;1.00
3778;DHT22;1904;50.076;8.660;2022-09-24T15:33:17;20.40;1.00
3778;DHT22;1904;50.076;8.660;2022-09-24T15:35:53;20.50;1.00
3778;DHT22;1904;50.076;8.660;2022-09-24T15:38:35;20.70;1.00
3778;DHT22;1904;50.076;8.660;2022-09-24T15:41:11;20.80;1.00
3778;DHT22;1904;50.076;8.660;2022-09-24T15:43:47;20.80;1.00
3778;DHT22;1904;50.076;8.660;2022-09-24T15:46:12;20.90;1.00
3778;DHT22;1904;50.076;8.660;2022-09-24T15:49:04;20.90;1.00
3778;DHT22;1904;50.076;8.660;2022-09-24T15:55:22;20.70;1.00
3778;DHT22;1904;50.076;8.660;2022-09-24T15:57:53;20.60;1.00
3778;DHT22;1904;50.076;8.660;2022-09-24T16:00:21;20.60;1.00
3778;DHT22;1904;50.076;8.660;2022-09-24T16:03:05;20.50;1.00
3778;DHT22;1904;50.076;8.660;2022-09-24T16:05:31;20.40;1.00
3778;DHT22;1904;50.076;8.660;2022-09-24T16:07:56;20.30;1.00
3778;DHT22;1904;50.076;8.660;2022-09-24T16:10:47;20.30;1.00
3778;DHT22;1904;50.076;8.660;2022-09-24T16:13:29;20.20;1.00
3778;DHT22;1904;50.076;8.660;2022-09-24T16:15:59;20.10;1.00
3778;DHT22;1904;50.076;8.660;2022-09-24T16:22:22;19.90;1.00
3778;DHT22;1904;50.076;8.660;2022-09-24T16:25:05;19.80;1.00
3778;DHT22;1904;50.076;8.660;2022-09-24T16:27:35;19.70;1.00
3778;DHT22;1904;50.076;8.660;2022-09-24T16:30:03;19.70;1.00
3778;DHT22;1904;50.076;8.660;2022-09-24T16:32:47;19.60;1.00
3778;DHT22;1904;50.076;8.660;2022-09-24T16:35:17;19.60;1.00
3778;DHT22;1904;50.076;8.660;2022-09-24T16:37:47;19.60;1.00
3778;DHT22;1904;50.076;8.660;2022-09-24T16:40:13;19.50;1.00
3778;DHT22;1904;50.076;8.660;2022-09-24T16:45:47;19.40;1.00
3778;DHT22;1904;50.076;8.660;2022-09-24T16:48:30;19.30;1.00
3778;DHT22;1904;50.076;8.660;2022-09-24T16:51:11;19.20;1.00
3778;DHT22;1904;50.076;8.660;2022-09-24T16:53:41;19.20;1.00
3778;DHT22;1904;50.076;8.660;2022-09-24T16:56:12;19.10;1.00
3778;DHT22;1904;50.076;8.660;2022-09-24T16:58:59;19.00;1.00
3778;DHT22;1904;50.076;8.660;2022-09-24T17:01:29;18.90;1.00
3778;DHT22;1904;50.076;8.660;2022-09-24T17:04:11;18.80;1.00
3778;DHT22;1904;50.076;8.660;2022-09-24T17:06:37;18.80;1.00
3778;DHT22;1904;50.076;8.660;2022-09-24T17:09:12;18.70;1.00
3778;DHT22;1904;50.076;8.660;2022-09-24T17:11:56;18.60;1.00
3778;DHT22;1904;50.076;8.660;2022-09-24T17:14:47;18.50;1.00
3778;DHT22;1904;50.076;8.660;2022-09-24T17:17:13;18.40;1.00
3778;DHT22;1904;50.076;8.660;2022-09-24T17:20:05;18.40;1.00
3778;DHT22;1904;50.076;8.660;2022-09-24T17:22:36;18.20;1.00
3778;DHT22;1904;50.076;8.660;2022-09-24T17:25:11;18.20;1.00
3778;DHT22;1904;50.076;8.660;2022-09-24T17:31:00;18.10;1.00
3778;DHT22;1904;50.076;8.660;2022-09-24T17:34:03;18.00;1.00
3778;DHT22;1904;50.076;8.660;2022-09-24T17:36:36;17.90;1.00
3778;DHT22;1904;50.076;8.660;2022-09-24T17:39:12;17.90;1.00
3778;DHT22;1904;50.076;8.660;2022-09-24T17:41:41;17.80;1.00
3778;DHT22;1904;50.076;8.660;2022-09-24T17:44:17;17.80;1.00
3778;DHT22;1904;50.076;8.660;2022-09-24T17:46:47;17.70;1.00
3778;DHT22;1904;50.076;8.660;2022-09-24T17:49:35;17.70;1.00
3778;DHT22;1904;50.076;8.660;2022-09-24T17:55:35;17.60;1.00
3778;DHT22;1904;50.076;8.660;2022-09-24T17:58:01;17.50;1.00
3778;DHT22;1904;50.076;8.660;2022-09-24T18:00:27;17.40;1.00
3778;DHT22;1904;50.076;8.660;2022-09-24T18:02:53;17.40;1.00
3778;DHT22;1904;50.076;8.660;2022-09-24T18:05:19;17.30;1.00
3778;DHT22;1904;50.076;8.660;2022-09-24T18:07:45;17.30;1.00
3778;DHT22;1904;50.076;8.660;2022-09-24T18:10:11;17.20;1.00
3778;DHT22;1904;50.076;8.660;2022-09-24T18:12:41;17.10;1.00
3778;DHT22;1904;50.076;8.660;2022-09-24T18:15:11;17.10;1.00
3778;DHT22;1904;50.076;8.660;2022-09-24T18:17:41;17.10;1.00
3778;DHT22;1904;50.076;8.660;2022-09-24T18:20:18;17.00;1.00
3778;DHT22;1904;50.076;8.660;2022-09-24T18:22:44;17.00;1.00
3778;DHT22;1904;50.076;8.660;2022-09-24T18:25:09;16.90;1.00
3778;DHT22;1904;50.076;8.660;2022-09-24T18:27:35;16.90;1.00
3778;DHT22;1904;50.076;8.660;2022-09-24T18:30:17;16.80;1.00
3778;DHT22;1904;50.076;8.660;2022-09-24T18:36:07;16.60;1.00
3778;DHT22;1904;50.076;8.660;2022-09-24T18:45:17;16.50;1.00
3778;DHT22;1904;50.076;8.660;2022-09-24T18:47:53;16.60;1.00
3778;DHT22;1904;50.076;8.660;2022-09-24T18:50:47;16.60;1.00
3778;DHT22;1904;50.076;8.660;2022-09-24T18:53:17;16.40;1.00
3778;DHT22;1904;50.076;8.660;2022-09-24T18:55:47;16.40;1.00
3778;DHT22;1904;50.076;8.660;2022-09-24T19:01:29;16.30;1.00
3778;DHT22;1904;50.076;8.660;2022-09-24T19:07:17;16.10;1.00
3778;DHT22;1904;50.076;8.660;2022-09-24T19:09:47;16.00;1.00
3778;DHT22;1904;50.076;8.660;2022-09-24T19:12:17;16.10;1.00
3778;DHT22;1904;50.076;8.660;2022-09-24T19:14:47;16.00;1.00
3778;DHT22;1904;50.076;8.660;2022-09-24T19:17:14;15.90;1.00
3778;DHT22;1904;50.076;8.660;2022-09-24T19:19:47;15.70;1.00
3778;DHT22;1904;50.076;8.660;2022-09-24T19:22:23;15.50;1.00
3778;DHT22;1904;50.076;8.660;2022-09-24T19:25:17;15.40;1.00
3778;DHT22;1904;50.076;8.660;2022-09-24T19:28:01;15.40;1.00
3778;DHT22;1904;50.076;8.660;2022-09-24T19:30:30;15.40;1.00
3778;DHT22;1904;50.076;8.660;2022-09-24T19:32:56;15.40;1.00
3778;DHT22;1904;50.076;8.660;2022-09-24T19:35:30;15.40;1.00
3778;DHT22;1904;50.076;8.660;2022-09-24T19:37:57;15.40;1.00
3778;DHT22;1904;50.076;8.660;2022-09-24T19:40:23;15.40;1.00
3778;DHT22;1904;50.076;8.660;2022-09-24T19:43:17;15.40;1.00
3778;DHT22;1904;50.076;8.660;2022-09-24T19:46:07;15.40;1.00
3778;DHT22;1904;50.076;8.660;2022-09-24T19:48:44;15.30;1.00
3778;DHT22;1904;50.076;8.660;2022-09-24T19:51:18;15.20;1.00
3778;DHT22;1904;50.076;8.660;2022-09-24T19:53:55;15.20;1.00
3778;DHT22;1904;50.076;8.660;2022-09-24T19:56:47;15.20;1.00
3778;DHT22;1904;50.076;8.660;2022-09-24T19:59:17;15.20;1.00
3778;DHT22;1904;50.076;8.660;2022-09-24T20:02:17;15.10;1.00
3778;DHT22;1904;50.076;8.660;2022-09-24T20:05:11;15.00;1.00
3778;DHT22;1904;50.076;8.660;2022-09-24T20:07:47;15.00;1.00
3778;DHT22;1904;50.076;8.660;2022-09-24T20:10:14;15.00;1.00
3778;DHT22;1904;50.076;8.660;2022-09-24T20:12:47;14.90;1.00
3778;DHT22;1904;50.076;8.660;2022-09-24T20:15:20;14.90;1.00
3778;DHT22;1904;50.076;8.660;2022-09-24T20:17:47;14.90;1.00
3778;DHT22;1904;50.076;8.660;2022-09-24T20:20:41;14.90;1.00
3778;DHT22;1904;50.076;8.660;2022-09-24T20:23:11;14.90;1.00
3778;DHT22;1904;50.076;8.660;2022-09-24T20:25:51;14.90;1.00
3778;DHT22;1904;50.076;8.660;2022-09-24T20:28:35;14.90;1.00
3778;DHT22;1904;50.076;8.660;2022-09-24T20:31:09;14.90;1.00
3778;DHT22;1904;50.076;8.660;2022-09-24T20:33:36;14.90;1.00
3778;DHT22;1904;50.076;8.660;2022-09-24T20:36:06;14.90;1.00
3778;DHT22;1904;50.076;8.660;2022-09-24T20:38:32;14.90;1.00
3778;DHT22;1904;50.076;8.660;2022-09-24T20:41:09;14.70;1.00
3778;DHT22;1904;50.076;8.660;2022-09-24T20:43:35;14.70;1.00
3778;DHT22;1904;50.076;8.660;2022-09-24T20:46:25;14.70;1.00
3778;DHT22;1904;50.076;8.660;2022-09-24T20:49:18;14.70;1.00
3778;DHT22;1904;50.076;8.660;2022-09-24T20:51:47;14.70;1.00
3778;DHT22;1904;50.076;8.660;2022-09-24T20:54:13;14.70;1.00
3778;DHT22;1904;50.076;8.660;2022-09-24T20:56:40;14.70;1.00
3778;DHT22;1904;50.076;8.660;2022-09-24T20:59:18;14.70;1.00
3778;DHT22;1904;50.076;8.660;2022-09-24T21:01:59;14.70;1.00
3778;DHT22;1904;50.076;8.660;2022-09-24T21:04:41;14.60;1.00
3778;DHT22;1904;50.076;8.660;2022-09-24T21:07:11;14.60;1.00
3778;DHT22;1904;50.076;8.660;2022-09-24T21:09:55;14.60;1.00
3778;DHT22;1904;50.076;8.660;2022-09-24T21:12:25;14.60;1.00
3778;DHT22;1904;50.076;8.660;2022-09-24T21:14:54;14.60;1.00
3778;DHT22;1904;50.076;8.660;2022-09-24T21:17:21;14.60;1.00
3778;DHT22;1904;50.076;8.660;2022-09-24T21:19:49;14.60;1.00
3778;DHT22;1904;50.076;8.660;2022-09-24T21:22:25;14.60;1.00
3778;DHT22;1904;50.076;8.660;2022-09-24T21:28:19;14.60;1.00
3778;DHT22;1904;50.076;8.660;2022-09-24T21:31:03;14.60;1.00
3778;DHT22;1904;50.076;8.660;2022-09-24T21:33:49;14.50;1.00
3778;DHT22;1904;50.076;8.660;2022-09-24T21:36:19;14.50;1.00
3778;DHT22;1904;50.076;8.660;2022-09-24T21:38:53;14.40;1.00
3778;DHT22;1904;50.076;8.660;2022-09-24T21:44:24;14.50;1.00
3778;DHT22;1904;50.076;8.660;2022-09-24T21:47:00;14.50;1.00
3778;DHT22;1904;50.076;8.660;2022-09-24T21:49:26;14.30;1.00
3778;DHT22;1904;50.076;8.660;2022-09-24T21:55:13;14.40;1.00
3778;DHT22;1904;50.076;8.660;2022-09-24T22:01:30;14.30;1.00
3778;DHT22;1904;50.076;8.660;2022-09-24T22:07:17;14.30;1.00
3778;DHT22;1904;50.076;8.660;2022-09-24T22:13:11;14.30;1.00
3778;DHT22;1904;50.076;8.660;2022-09-24T22:15:59;14.20;1.00